Time;durP1;ratioP1;P1;durP2;ratioP2;P2;SDS_P1;SDS_P2;PMS_P1;PMS_P2;Temp;Humidity;BMP_temperature;BMP_pressure;BME280_temperature;BME280_humidity;BME280_pressure;Samples;Min_cycle;Max_cycle;Signal;HPM_P1;HPM_P2
2023/10/05 00:01:24;;;;;;;0.30;0.30;;;12.80;99.90;;;;;;5085323;28;20550;-80
2023/10/05 00:03:51;;;;;;;0.40;0.40;;;12.80;99.90;;;;;;5050565;28;20043;-78
2023/10/05 00:06:24;;;;;;;0.30;0.30;;;12.80;99.90;;;;;;5047160;28;20044;-75
2023/10/05 00:08:53;;;;;;;0.30;0.30;;;12.80;99.90;;;;;;5079872;28;20120;-77
2023/10/05 00:11:24;;;;;;;4.43;1.77;;;12.80;99.90;;;;;;5078806;28;20150;-76
2023/10/05 00:13:56;;;;;;;0.20;0.20;;;12.90;99.90;;;;;;5085577;28;20035;-75
2023/10/05 00:16:22;;;;;;;0.30;0.30;;;12.90;99.90;;;;;;5082471;28;20047;-79
2023/10/05 00:18:49;;;;;;;0.30;0.30;;;12.90;99.90;;;;;;5076973;28;20039;-76
2023/10/05 00:21:19;;;;;;;0.60;0.60;;;13.00;99.90;;;;;;5076321;28;20551;-79
2023/10/05 00:23:56;;;;;;;0.60;0.60;;;12.90;99.90;;;;;;5060992;28;20499;-80
2023/10/05 00:26:23;;;;;;;0.50;0.50;;;13.00;99.90;;;;;;5078236;28;20079;-73
2023/10/05 00:29:06;;;;;;;0.60;0.60;;;12.90;99.90;;;;;;5081960;28;20048;-77
2023/10/05 00:31:38;;;;;;;0.22;0.22;;;12.90;99.90;;;;;;5063879;28;20031;-79
2023/10/05 00:34:08;;;;;;;0.30;0.30;;;12.90;99.90;;;;;;5079564;28;20040;-80
2023/10/05 00:36:37;;;;;;;0.30;0.30;;;12.90;99.90;;;;;;5069733;28;20507;-79
2023/10/05 00:39:07;;;;;;;0.40;0.40;;;13.00;99.90;;;;;;5063879;28;20051;-76
2023/10/05 00:41:33;;;;;;;2.40;0.73;;;13.00;99.90;;;;;;5077889;28;20047;-78
2023/10/05 00:43:59;;;;;;;0.32;0.32;;;12.90;99.90;;;;;;5079503;28;20044;-78
2023/10/05 00:46:25;;;;;;;1.00;1.00;;;12.90;99.90;;;;;;5078845;28;20040;-77
2023/10/05 00:49:12;;;;;;;0.38;0.38;;;12.90;99.90;;;;;;5079383;28;20478;-77
2023/10/05 00:51:40;;;;;;;1.92;1.75;;;12.90;99.90;;;;;;5075682;28;20040;-77
2023/10/05 00:54:11;;;;;;;0.40;0.40;;;12.80;99.90;;;;;;5061716;28;20094;-80
2023/10/05 00:56:39;;;;;;;0.68;0.68;;;12.80;99.90;;;;;;5079682;28;20040;-80
2023/10/05 00:59:09;;;;;;;0.40;0.40;;;12.80;99.90;;;;;;5073714;28;20505;-77
2023/10/05 01:04:26;;;;;;;0.40;0.40;;;12.80;99.90;;;;;;5082627;28;20397;-77
2023/10/05 01:06:56;;;;;;;0.40;0.40;;;12.80;99.90;;;;;;5064739;28;20036;-78
2023/10/05 01:14:50;;;;;;;0.40;0.40;;;12.70;99.90;;;;;;5075891;28;20051;-77
2023/10/05 01:17:20;;;;;;;0.38;0.38;;;12.70;99.90;;;;;;5060668;28;20047;-76
2023/10/05 01:19:58;;;;;;;0.40;0.40;;;12.70;99.90;;;;;;5077978;28;20120;-79
2023/10/05 01:22:40;;;;;;;0.30;0.30;;;12.70;99.90;;;;;;5052954;28;20081;-78
2023/10/05 01:25:13;;;;;;;0.45;0.45;;;12.60;99.90;;;;;;5063761;28;20063;-80
2023/10/05 01:27:42;;;;;;;0.50;0.50;;;12.60;99.90;;;;;;5075252;28;20492;-83
2023/10/05 01:30:12;;;;;;;1.15;1.05;;;12.60;99.90;;;;;;5065678;28;20052;-74
2023/10/05 01:32:41;;;;;;;0.40;0.40;;;12.60;99.90;;;;;;5070611;28;20443;-77
2023/10/05 01:35:13;;;;;;;0.30;0.30;;;12.60;99.90;;;;;;5065529;28;20077;-77
2023/10/05 01:37:45;;;;;;;0.88;0.88;;;12.60;99.90;;;;;;5068571;28;20085;-77
2023/10/05 01:42:44;;;;;;;0.30;0.30;;;12.60;99.90;;;;;;5085790;28;20055;-80
2023/10/05 01:45:24;;;;;;;0.22;0.22;;;12.60;99.90;;;;;;5084290;28;20048;-80
2023/10/05 01:47:50;;;;;;;0.20;0.20;;;12.60;99.90;;;;;;5083371;28;20044;-79
2023/10/05 01:50:20;;;;;;;1.00;0.95;;;12.60;99.90;;;;;;5087763;28;20032;-77
2023/10/05 01:52:49;;;;;;;0.40;0.40;;;12.50;99.90;;;;;;5080948;28;20039;-77
2023/10/05 01:55:18;;;;;;;0.40;0.40;;;12.60;99.90;;;;;;5079869;28;20039;-76
2023/10/05 01:57:44;;;;;;;0.30;0.30;;;12.60;99.90;;;;;;5060138;28;20044;-78
2023/10/05 02:00:14;;;;;;;0.30;0.30;;;12.60;99.90;;;;;;5093906;28;20101;-74
2023/10/05 02:02:43;;;;;;;0.45;0.45;;;12.60;99.90;;;;;;5089532;28;20358;-74
2023/10/05 02:05:10;;;;;;;0.63;0.63;;;12.60;99.90;;;;;;5068008;28;20043;-74
2023/10/05 02:07:38;;;;;;;0.43;0.43;;;12.60;99.90;;;;;;5072649;28;20454;-75
2023/10/05 02:10:09;;;;;;;7.68;0.98;;;12.60;99.90;;;;;;5087216;28;20102;-75
2023/10/05 02:12:36;;;;;;;0.30;0.30;;;12.60;99.90;;;;;;5076608;28;20389;-80
2023/10/05 02:15:05;;;;;;;2.38;1.70;;;12.70;99.90;;;;;;5089798;28;20074;-75
2023/10/05 02:17:31;;;;;;;0.35;0.35;;;12.70;99.90;;;;;;5075323;28;20044;-75
2023/10/05 02:19:58;;;;;;;0.22;0.22;;;12.80;99.90;;;;;;5068080;28;20043;-80
2023/10/05 02:22:23;;;;;;;0.40;0.40;;;12.80;99.90;;;;;;5090580;28;20039;-77
2023/10/05 02:24:52;;;;;;;5.45;2.58;;;12.90;99.90;;;;;;5048446;28;20063;-75
2023/10/05 02:27:17;;;;;;;0.40;0.40;;;12.90;99.90;;;;;;5060221;28;20044;-79
2023/10/05 02:29:44;;;;;;;0.40;0.40;;;12.90;99.90;;;;;;5071767;28;20050;-81
2023/10/05 02:32:11;;;;;;;0.50;0.50;;;12.90;99.90;;;;;;5085380;28;20043;-75
2023/10/05 02:37:24;;;;;;;0.68;0.68;;;12.80;99.90;;;;;;5079944;28;20047;-79
2023/10/05 02:39:50;;;;;;;0.57;0.57;;;12.80;99.90;;;;;;5054704;28;20040;-76
2023/10/05 02:42:21;;;;;;;0.28;0.28;;;12.80;99.90;;;;;;5082979;28;20089;-77
2023/10/05 02:44:47;;;;;;;0.30;0.30;;;12.80;99.90;;;;;;5064844;28;20054;-74
2023/10/05 02:47:14;;;;;;;1.52;1.42;;;12.70;99.90;;;;;;5079103;28;20052;-74
2023/10/05 02:49:44;;;;;;;0.25;0.25;;;12.70;99.90;;;;;;5068196;28;20075;-80
2023/10/05 02:52:13;;;;;;;0.85;0.85;;;12.70;99.90;;;;;;5065635;28;20067;-78
2023/10/05 02:54:42;;;;;;;0.40;0.40;;;12.80;99.90;;;;;;5061292;28;20177;-76
2023/10/05 02:57:10;;;;;;;0.30;0.30;;;12.80;99.90;;;;;;5065349;28;20123;-80
2023/10/05 02:59:40;;;;;;;0.55;0.40;;;12.70;99.90;;;;;;5093155;28;20480;-78
2023/10/05 03:02:07;;;;;;;0.30;0.30;;;12.70;99.90;;;;;;5075436;28;20044;-77
2023/10/05 03:07:18;;;;;;;0.17;0.17;;;12.70;99.90;;;;;;5082960;28;20409;-77
2023/10/05 03:09:46;;;;;;;0.30;0.30;;;12.90;99.90;;;;;;5085433;28;20038;-77
2023/10/05 03:12:12;;;;;;;0.40;0.40;;;12.90;99.90;;;;;;5079828;28;20366;-78
2023/10/05 03:14:40;;;;;;;0.50;0.50;;;13.00;99.90;;;;;;5088601;28;20043;-75
2023/10/05 03:17:13;;;;;;;0.30;0.30;;;13.10;99.90;;;;;;5063779;28;20057;-74
2023/10/05 03:19:40;;;;;;;0.50;0.50;;;13.20;99.90;;;;;;5061614;28;20163;-78
2023/10/05 03:22:08;;;;;;;0.40;0.40;;;13.30;99.90;;;;;;5089795;28;20051;-78
2023/10/05 03:24:37;;;;;;;0.32;0.32;;;13.50;99.90;;;;;;5080070;28;20105;-75
2023/10/05 03:27:03;;;;;;;0.30;0.30;;;13.60;99.90;;;;;;5073678;28;20052;-74
2023/10/05 03:29:29;;;;;;;0.30;0.30;;;13.60;99.90;;;;;;5061769;28;20040;-77
2023/10/05 03:32:13;;;;;;;0.40;0.40;;;13.70;99.90;;;;;;5076964;28;20143;-77
2023/10/05 03:34:46;;;;;;;0.30;0.30;;;13.70;99.90;;;;;;5070739;28;20044;-77
2023/10/05 03:37:13;;;;;;;0.70;0.70;;;13.70;99.90;;;;;;5076764;28;20036;-80
2023/10/05 03:39:52;;;;;;;33.45;2.47;;;13.80;99.90;;;;;;5065003;28;20074;-80
2023/10/05 03:42:21;;;;;;;0.30;0.30;;;13.90;99.90;;;;;;5062978;28;20045;-77
2023/10/05 03:45:02;;;;;;;0.90;0.85;;;13.90;99.90;;;;;;5059828;28;20035;-80
2023/10/05 03:47:28;;;;;;;0.50;0.50;;;14.00;99.90;;;;;;5058482;28;20604;-79
2023/10/05 03:49:57;;;;;;;0.40;0.40;;;14.00;99.90;;;;;;5061481;28;20158;-83
2023/10/05 03:52:29;;;;;;;0.52;0.52;;;14.10;99.90;;;;;;5075321;28;20036;-75
2023/10/05 03:55:09;;;;;;;0.40;0.40;;;14.00;99.90;;;;;;5080385;28;20040;-77
2023/10/05 03:57:35;;;;;;;0.40;0.40;;;14.00;99.90;;;;;;5090107;28;20036;-79
2023/10/05 04:00:18;;;;;;;0.30;0.30;;;14.00;99.90;;;;;;5060609;28;20051;-81
2023/10/05 04:02:44;;;;;;;0.52;0.52;;;14.00;99.90;;;;;;5061749;28;20047;-80
2023/10/05 04:05:11;;;;;;;0.38;0.38;;;13.90;99.90;;;;;;5060579;28;20044;-79
2023/10/05 04:07:37;;;;;;;0.30;0.30;;;13.80;99.90;;;;;;5078537;28;20040;-74
2023/10/05 04:10:05;;;;;;;0.93;0.93;;;13.80;99.90;;;;;;5057033;28;20047;-75
2023/10/05 04:12:32;;;;;;;0.50;0.50;;;13.70;99.90;;;;;;5079394;28;20043;-77
2023/10/05 04:15:00;;;;;;;0.50;0.50;;;13.70;99.90;;;;;;5074824;28;20094;-77
2023/10/05 04:17:26;;;;;;;0.40;0.40;;;13.70;99.90;;;;;;5072621;28;20044;-75
2023/10/05 04:19:52;;;;;;;0.75;0.55;;;13.60;99.90;;;;;;5070737;28;20080;-74
2023/10/05 04:22:18;;;;;;;;;;;13.50;99.90;;;;;;5062850;28;20052;-74
2023/10/05 04:24:45;;;;;;;4.78;0.63;;;13.60;99.90;;;;;;5071269;28;19973;-75
2023/10/05 04:27:18;;;;;;;0.40;0.40;;;13.70;99.90;;;;;;5079834;28;20079;-76
2023/10/05 04:29:43;;;;;;;0.43;0.43;;;13.70;99.90;;;;;;5074985;28;20046;-81
2023/10/05 04:32:13;;;;;;;0.47;0.47;;;13.70;99.90;;;;;;5059486;28;20115;-78
2023/10/05 04:34:38;;;;;;;22.80;1.20;;;13.60;99.90;;;;;;5053344;28;20047;-77
2023/10/05 04:37:04;;;;;;;0.50;0.50;;;13.70;99.90;;;;;;5088025;28;20425;-75
2023/10/05 04:39:30;;;;;;;5.68;1.63;;;13.60;99.90;;;;;;5067922;28;20515;-78
2023/10/05 04:42:04;;;;;;;0.60;0.60;;;13.60;99.90;;;;;;5083435;28;20547;-78
2023/10/05 04:44:30;;;;;;;0.40;0.40;;;13.70;99.90;;;;;;5083707;28;20051;-77
2023/10/05 04:46:56;;;;;;;0.40;0.40;;;;;;;;;;5065699;28;20044;-79
2023/10/05 04:49:24;;;;;;;0.52;0.52;;;13.70;99.90;;;;;;5084225;28;20046;-73
2023/10/05 04:51:51;;;;;;;0.32;0.32;;;13.70;99.90;;;;;;5081637;28;20459;-77
2023/10/05 04:54:25;;;;;;;1.38;1.27;;;13.70;99.90;;;;;;5085122;28;20043;-80
2023/10/05 04:56:54;;;;;;;0.30;0.30;;;13.70;99.90;;;;;;5090375;28;20055;-76
2023/10/05 04:59:37;;;;;;;0.93;0.93;;;13.70;99.90;;;;;;5086373;28;20040;-81
2023/10/05 05:02:20;;;;;;;0.50;0.50;;;13.70;99.90;;;;;;5083044;28;20055;-75
2023/10/05 05:07:21;;;;;;;1.50;1.40;;;13.80;99.90;;;;;;5079503;28;20516;-78
2023/10/05 05:09:47;;;;;;;0.40;0.40;;;13.80;99.90;;;;;;5086636;28;20393;-77
2023/10/05 05:12:16;;;;;;;0.50;0.50;;;13.80;99.90;;;;;;5098285;28;21824;-78
2023/10/05 05:14:46;;;;;;;0.80;0.65;;;13.80;99.90;;;;;;5061908;28;20035;-75
2023/10/05 05:17:14;;;;;;;0.47;0.47;;;13.70;99.90;;;;;;5062092;28;20074;-75
2023/10/05 05:19:40;;;;;;;0.40;0.40;;;13.70;99.90;;;;;;5094032;28;20119;-75
2023/10/05 05:22:07;;;;;;;1.45;1.42;;;13.60;99.90;;;;;;5067941;28;20118;-75
2023/10/05 05:24:37;;;;;;;0.40;0.40;;;13.60;99.90;;;;;;5085444;28;20370;-73
2023/10/05 05:27:03;;;;;;;0.50;0.50;;;13.70;99.90;;;;;;5049206;28;20059;-75
2023/10/05 05:29:33;;;;;;;0.98;0.50;;;13.70;99.90;;;;;;5056643;28;20044;-75
2023/10/05 05:32:07;;;;;;;0.30;0.30;;;13.70;99.90;;;;;;5075795;28;20078;-75
2023/10/05 05:34:33;;;;;;;0.60;0.60;;;13.70;99.90;;;;;;5063420;28;20513;-78
2023/10/05 05:36:59;;;;;;;;;;;13.80;99.90;;;;;;5070038;28;20058;-73
2023/10/05 05:39:26;;;;;;;0.30;0.30;;;13.70;99.90;;;;;;5048378;28;19916;-76
2023/10/05 05:42:06;;;;;;;0.38;0.38;;;13.70;99.90;;;;;;5060608;28;20044;-76
2023/10/05 05:44:34;;;;;;;0.20;0.20;;;13.80;99.90;;;;;;5059129;28;20051;-84
2023/10/05 05:47:10;;;;;;;0.40;0.40;;;13.70;99.90;;;;;;5063430;28;20119;-76
2023/10/05 05:49:38;;;;;;;0.20;0.20;;;13.70;99.90;;;;;;5048398;28;20047;-82
2023/10/05 05:52:11;;;;;;;0.30;0.30;;;13.70;99.90;;;;;;5075106;28;20110;-77
2023/10/05 05:54:38;;;;;;;0.30;0.30;;;13.70;99.90;;;;;;5067978;28;20054;-79
2023/10/05 05:57:07;;;;;;;0.43;0.43;;;13.60;99.90;;;;;;5076713;28;20054;-83
2023/10/05 05:59:34;;;;;;;0.38;0.38;;;13.70;99.90;;;;;;5072055;28;20071;-81
2023/10/05 06:02:03;;;;;;;0.30;0.30;;;13.70;99.90;;;;;;5068397;28;20044;-77
2023/10/05 06:04:32;;;;;;;0.50;0.50;;;14.00;99.90;;;;;;5034023;28;20048;-76
2023/10/05 06:06:59;;;;;;;0.50;0.50;;;13.90;99.90;;;;;;5074608;28;20044;-81
2023/10/05 06:09:26;;;;;;;0.30;0.30;;;14.00;99.90;;;;;;5049052;28;20039;-79
2023/10/05 06:11:53;;;;;;;0.20;0.20;;;14.00;99.90;;;;;;5032000;28;20817;-81
2023/10/05 06:14:19;;;;;;;0.30;0.30;;;14.10;99.90;;;;;;5065994;28;20068;-84
2023/10/05 06:16:45;;;;;;;0.95;0.95;;;14.10;99.90;;;;;;5046803;28;20072;-75
2023/10/05 06:19:11;;;;;;;;;;;14.20;99.90;;;;;;5047196;28;20059;-76
2023/10/05 06:21:37;;;;;;;0.40;0.40;;;14.20;99.90;;;;;;5046041;28;19924;-78
2023/10/05 06:24:04;;;;;;;0.32;0.32;;;14.20;99.90;;;;;;5050166;28;20841;-75
2023/10/05 06:26:30;;;;;;;0.85;0.63;;;14.20;99.90;;;;;;5064776;28;20044;-76
2023/10/05 06:28:56;;;;;;;0.30;0.30;;;14.20;99.90;;;;;;5082508;28;20078;-80
2023/10/05 06:31:23;;;;;;;0.70;0.70;;;14.30;99.90;;;;;;5062624;28;20067;-80
2023/10/05 06:33:48;;;;;;;;;;;14.40;99.90;;;;;;5086402;28;20367;-75
2023/10/05 06:36:14;;;;;;;0.40;0.40;;;14.40;99.90;;;;;;5052897;28;19916;-82
2023/10/05 06:38:40;;;;;;;;;;;14.40;99.90;;;;;;5065589;28;20075;-78
2023/10/05 06:41:06;;;;;;;0.30;0.30;;;14.50;99.90;;;;;;5085492;28;20349;-82
2023/10/05 06:43:35;;;;;;;0.30;0.30;;;14.50;99.90;;;;;;5087618;28;20047;-82
2023/10/05 06:46:09;;;;;;;2.15;1.90;;;14.50;99.90;;;;;;5069652;28;20490;-81
2023/10/05 06:48:40;;;;;;;1.17;1.15;;;14.40;99.90;;;;;;5071981;28;20055;-79
2023/10/05 06:51:07;;;;;;;0.55;0.55;;;14.70;99.90;;;;;;5086888;28;20040;-81
2023/10/05 06:53:32;;;;;;;1.08;1.08;;;14.70;99.90;;;;;;5068270;28;20055;-79
2023/10/05 06:55:58;;;;;;;0.40;0.40;;;14.80;99.90;;;;;;5084338;28;20043;-83
2023/10/05 06:58:24;;;;;;;0.30;0.30;;;14.90;99.90;;;;;;5085635;28;20036;-80
2023/10/05 07:00:50;;;;;;;0.30;0.30;;;14.90;99.90;;;;;;5065655;28;20048;-80
2023/10/05 07:03:16;;;;;;;;;;;14.90;99.90;;;;;;5063001;28;20055;-82
2023/10/05 07:05:41;;;;;;;0.25;0.25;;;15.00;99.90;;;;;;5060720;28;19973;-82
2023/10/05 07:08:07;;;;;;;0.30;0.30;;;15.00;99.90;;;;;;5068878;28;20040;-83
2023/10/05 07:10:33;;;;;;;0.28;0.28;;;15.00;99.90;;;;;;5065984;28;20537;-79
2023/10/05 07:12:59;;;;;;;0.30;0.30;;;15.10;99.90;;;;;;5051913;28;20024;-80
2023/10/05 07:15:24;;;;;;;;;;;15.10;99.90;;;;;;5067086;28;20120;-76
2023/10/05 07:17:50;;;;;;;0.82;0.82;;;15.20;99.90;;;;;;5063284;28;19927;-75
2023/10/05 07:20:17;;;;;;;0.93;0.50;;;15.20;99.90;;;;;;5061468;28;20044;-79
2023/10/05 07:22:44;;;;;;;0.55;0.55;;;15.20;99.90;;;;;;5060692;28;20378;-79
2023/10/05 07:25:11;;;;;;;0.32;0.32;;;15.30;99.90;;;;;;5061837;28;20376;-81
2023/10/05 07:27:43;;;;;;;0.38;0.38;;;15.40;99.90;;;;;;5071242;28;20135;-76
2023/10/05 07:30:09;;;;;;;0.30;0.30;;;15.40;99.90;;;;;;5052376;28;20055;-80
2023/10/05 07:32:37;;;;;;;1.00;1.00;;;;;;;;;;5069370;28;20039;-79
2023/10/05 07:35:07;;;;;;;2.38;0.52;;;;;;;;;;5083805;28;20039;-76
2023/10/05 07:37:34;;;;;;;0.40;0.40;;;;;;;;;;5067195;28;20383;-76
2023/10/05 07:40:00;;;;;;;0.50;0.50;;;;;;;;;;5062646;28;20074;-75
2023/10/05 07:42:28;;;;;;;0.32;0.32;;;;;;;;;;5063604;28;20040;-76
2023/10/05 07:44:55;;;;;;;0.30;0.30;;;;;;;;;;5098319;28;20046;-75
2023/10/05 07:47:24;;;;;;;0.57;0.35;;;;;;;;;;5087152;28;20055;-77
2023/10/05 07:49:52;;;;;;;0.30;0.30;;;;;;;;;;5081537;28;20039;-76
2023/10/05 07:52:19;;;;;;;0.70;0.70;;;;;;;;;;5062352;28;20122;-78
2023/10/05 07:54:45;;;;;;;0.45;0.45;;;;;;;;;;5068129;28;20115;-77
2023/10/05 07:57:11;;;;;;;;;;;15.00;99.90;;;;;;5088305;28;20085;-77
2023/10/05 07:59:41;;;;;;;0.25;0.25;;;14.90;99.90;;;;;;5084042;28;19959;-79
2023/10/05 08:02:08;;;;;;;0.22;0.22;;;14.80;99.90;;;;;;5052692;28;20507;-77
2023/10/05 08:04:35;;;;;;;0.63;0.63;;;14.70;99.90;;;;;;5067736;28;20400;-77
2023/10/05 08:07:01;;;;;;;0.65;0.65;;;14.70;99.90;;;;;;5085471;28;20145;-78
2023/10/05 08:09:27;;;;;;;0.30;0.30;;;14.60;99.90;;;;;;5071336;28;20395;-79
2023/10/05 08:11:56;;;;;;;0.73;0.73;;;14.50;99.90;;;;;;5052761;28;20039;-79
2023/10/05 08:14:25;;;;;;;0.30;0.30;;;14.50;99.90;;;;;;5083439;28;20119;-78
2023/10/05 08:16:52;;;;;;;0.30;0.30;;;14.40;99.90;;;;;;5082132;28;20401;-78
2023/10/05 08:19:21;;;;;;;0.40;0.40;;;14.40;99.90;;;;;;5051281;28;20055;-77
2023/10/05 08:21:47;;;;;;;0.35;0.35;;;14.40;99.90;;;;;;5069844;28;20116;-77
2023/10/05 08:24:14;;;;;;;0.30;0.30;;;14.40;99.90;;;;;;5081685;28;20415;-77
2023/10/05 08:26:41;;;;;;;0.30;0.30;;;14.40;99.90;;;;;;5047499;28;20049;-77
2023/10/05 08:29:10;;;;;;;1.60;1.50;;;14.40;99.90;;;;;;5085207;28;20059;-78
2023/10/05 08:31:37;;;;;;;1.58;1.48;;;14.50;99.90;;;;;;5044719;28;20040;-77
2023/10/05 08:34:03;;;;;;;0.30;0.30;;;14.50;99.90;;;;;;5076300;28;20051;-79
2023/10/05 08:36:33;;;;;;;;;;;14.60;99.90;;;;;;5053615;28;20044;-77
2023/10/05 08:39:00;;;;;;;0.30;0.30;;;14.60;99.90;;;;;;5074186;28;19979;-77
2023/10/05 08:41:31;;;;;;;0.38;0.38;;;14.60;99.90;;;;;;5062220;28;20402;-77
2023/10/05 08:44:06;;;;;;;0.30;0.30;;;14.60;99.90;;;;;;5078790;28;20040;-77
2023/10/05 08:46:43;;;;;;;0.82;0.63;;;14.60;99.90;;;;;;5065135;28;20055;-77
2023/10/05 08:49:15;;;;;;;1.27;0.63;;;14.60;99.90;;;;;;5076526;28;20076;-77
2023/10/05 08:51:41;;;;;;;0.35;0.35;;;14.60;99.90;;;;;;5077638;28;20082;-77
2023/10/05 08:54:11;;;;;;;0.40;0.35;;;14.60;99.90;;;;;;5080074;28;20039;-77
2023/10/05 08:56:40;;;;;;;0.60;0.60;;;14.60;99.90;;;;;;5058008;28;20115;-77
2023/10/05 08:59:07;;;;;;;0.40;0.40;;;14.70;99.90;;;;;;5083288;28;20119;-77
2023/10/05 09:01:35;;;;;;;0.65;0.40;;;14.80;99.90;;;;;;5081767;28;20127;-77
2023/10/05 09:06:59;;;;;;;0.30;0.30;;;15.00;99.90;;;;;;5078536;28;20417;-78
2023/10/05 09:09:51;;;;;;;0.30;0.30;;;15.20;99.90;;;;;;5078091;28;20048;-78
2023/10/05 09:12:32;;;;;;;0.88;0.88;;;15.40;99.90;;;;;;5080658;28;20457;-78
2023/10/05 09:15:28;;;;;;;0.30;0.30;;;15.50;99.90;;;;;;5063177;28;20036;-78
2023/10/05 09:17:57;;;;;;;0.50;0.50;;;15.50;99.90;;;;;;5072526;28;20394;-78
2023/10/05 09:20:36;;;;;;;0.38;0.38;;;15.50;99.90;;;;;;5067291;28;20370;-78
2023/10/05 09:23:07;;;;;;;0.50;0.50;;;15.40;99.90;;;;;;5072562;28;20051;-77
2023/10/05 09:25:38;;;;;;;0.30;0.30;;;15.30;99.90;;;;;;5064426;28;20071;-77
2023/10/05 09:28:14;;;;;;;0.40;0.40;;;15.20;99.90;;;;;;5067625;28;20064;-77
2023/10/05 09:30:59;;;;;;;0.30;0.30;;;15.20;99.90;;;;;;5065553;28;20036;-77
2023/10/05 09:33:27;;;;;;;0.30;0.30;;;15.30;99.90;;;;;;5068779;28;20449;-77
2023/10/05 09:36:06;;;;;;;0.75;0.75;;;15.30;99.90;;;;;;5079794;28;20044;-77
2023/10/05 09:38:38;;;;;;;0.30;0.30;;;15.40;99.90;;;;;;5067508;28;20122;-77
2023/10/05 09:41:06;;;;;;;1.45;1.20;;;15.50;99.90;;;;;;5062994;28;20044;-78
2023/10/05 09:43:38;;;;;;;0.30;0.30;;;15.60;99.90;;;;;;5085959;28;20080;-76
2023/10/05 09:46:14;;;;;;;0.57;0.52;;;15.60;99.90;;;;;;5076440;28;20091;-78
2023/10/05 09:48:41;;;;;;;0.30;0.30;;;15.60;99.90;;;;;;5084771;28;20071;-77
2023/10/05 09:51:10;;;;;;;0.32;0.32;;;15.80;99.90;;;;;;5070601;28;20044;-77
2023/10/05 09:53:44;;;;;;;0.60;0.60;;;15.90;99.90;;;;;;5083324;28;20039;-77
2023/10/05 09:56:12;;;;;;;0.50;0.50;;;16.00;99.90;;;;;;5078013;28;20117;-78
2023/10/05 09:58:45;;;;;;;0.20;0.20;;;16.10;99.90;;;;;;5079850;28;20416;-78
2023/10/05 10:01:20;;;;;;;0.50;0.50;;;16.20;99.90;;;;;;5081421;28;20060;-77
2023/10/05 10:03:46;;;;;;;0.55;0.55;;;16.30;99.90;;;;;;5066593;28;20047;-78
2023/10/05 10:06:17;;;;;;;0.30;0.30;;;16.40;99.90;;;;;;5062861;28;20050;-78
2023/10/05 10:09:07;;;;;;;0.55;0.55;;;16.50;99.90;;;;;;5063689;28;20040;-77
2023/10/05 10:11:33;;;;;;;0.50;0.50;;;16.50;99.90;;;;;;5076129;28;20040;-78
2023/10/05 10:14:00;;;;;;;0.38;0.38;;;16.60;99.90;;;;;;5066467;28;20085;-79
2023/10/05 10:16:27;;;;;;;0.52;0.52;;;16.70;99.90;;;;;;5063408;28;20732;-79
2023/10/05 10:19:07;;;;;;;0.30;0.30;;;16.70;99.90;;;;;;5065608;28;20051;-77
2023/10/05 10:21:46;;;;;;;0.50;0.50;;;16.80;99.90;;;;;;5064696;28;20090;-77
2023/10/05 10:24:14;;;;;;;3.10;1.10;;;16.90;99.90;;;;;;5077928;28;20530;-78
2023/10/05 10:27:07;;;;;;;1.80;1.70;;;17.00;99.90;;;;;;5063775;28;20052;-78
2023/10/05 10:30:01;;;;;;;3.85;0.63;;;16.90;99.90;;;;;;5081079;28;20059;-78
2023/10/05 10:32:34;;;;;;;0.40;0.40;;;16.90;99.90;;;;;;5082387;28;20051;-78
2023/10/05 10:35:26;;;;;;;0.43;0.43;;;16.80;99.90;;;;;;5080093;28;20370;-78
2023/10/05 10:37:54;;;;;;;0.47;0.47;;;17.00;99.90;;;;;;5085419;28;20036;-79
2023/10/05 10:42:49;;;;;;;0.40;0.40;;;17.20;99.90;;;;;;5067754;28;20052;-78
2023/10/05 10:45:23;;;;;;;0.30;0.30;;;17.30;99.90;;;;;;5082403;28;20036;-78
2023/10/05 10:47:50;;;;;;;0.20;0.20;;;17.30;99.90;;;;;;5083348;28;20037;-78
2023/10/05 10:50:22;;;;;;;0.43;0.43;;;17.40;99.90;;;;;;5064127;28;20748;-78
2023/10/05 10:52:50;;;;;;;0.50;0.50;;;17.40;99.90;;;;;;5064515;28;20048;-78
2023/10/05 10:55:16;;;;;;;1.10;1.10;;;17.50;99.90;;;;;;5082868;28;20043;-75
2023/10/05 10:57:47;;;;;;;0.32;0.32;;;17.40;99.90;;;;;;5056676;28;20090;-78
2023/10/05 11:03:24;;;;;;;0.70;0.68;;;17.20;99.90;;;;;;5083482;28;20508;-78
2023/10/05 11:05:57;;;;;;;0.38;0.38;;;17.00;99.90;;;;;;5068477;28;20117;-78
2023/10/05 11:08:24;;;;;;;0.45;0.45;;;16.70;99.90;;;;;;5073782;28;20031;-79
2023/10/05 11:11:09;;;;;;;0.70;0.70;;;16.50;99.90;;;;;;5067948;28;20040;-79
2023/10/05 11:13:49;;;;;;;0.40;0.40;;;16.40;99.90;;;;;;5057696;28;20058;-79
2023/10/05 11:16:15;;;;;;;0.68;0.68;;;16.50;99.90;;;;;;5070667;28;20051;-79
2023/10/05 11:18:57;;;;;;;0.40;0.40;;;16.60;99.90;;;;;;5065979;28;20086;-77
2023/10/05 11:21:26;;;;;;;0.22;0.22;;;16.70;99.90;;;;;;5067187;28;20036;-77
2023/10/05 11:23:56;;;;;;;0.35;0.30;;;16.80;99.90;;;;;;5079815;28;20147;-79
2023/10/05 11:26:28;;;;;;;2.42;0.93;;;16.80;99.90;;;;;;5085069;28;20043;-78
2023/10/05 11:28:56;;;;;;;0.50;0.50;;;16.90;99.90;;;;;;5065673;28;20039;-79
2023/10/05 11:31:24;;;;;;;0.30;0.30;;;16.90;99.90;;;;;;5051871;28;20540;-78
2023/10/05 11:33:53;;;;;;;0.52;0.50;;;17.00;99.90;;;;;;5077528;28;20036;-78
2023/10/05 11:36:42;;;;;;;0.73;0.73;;;17.20;99.90;;;;;;5067427;28;20075;-78
2023/10/05 11:39:39;;;;;;;0.43;0.43;;;17.30;99.90;;;;;;5084380;28;20369;-78
2023/10/05 11:41:58;;;;;;;0.52;0.47;;;17.30;99.90;;;;;;5086117;28;20051;-78
2023/10/05 11:44:24;;;;;;;0.40;0.40;;;17.30;99.90;;;;;;5081150;28;20071;-77
2023/10/05 11:46:54;;;;;;;0.95;0.95;;;17.20;99.90;;;;;;5082040;28;20063;-77
2023/10/05 11:49:30;;;;;;;0.38;0.38;;;17.10;99.90;;;;;;5079955;28;20369;-77
2023/10/05 11:51:57;;;;;;;0.20;0.20;;;17.00;99.90;;;;;;5071059;28;20079;-77
2023/10/05 11:54:30;;;;;;;0.22;0.22;;;17.00;99.90;;;;;;5067259;28;20035;-77
2023/10/05 11:56:57;;;;;;;0.40;0.40;;;17.10;99.90;;;;;;5086043;28;20050;-77
2023/10/05 11:59:31;;;;;;;0.22;0.22;;;17.10;99.90;;;;;;5080035;28;20519;-78
2023/10/05 12:01:57;;;;;;;0.30;0.30;;;17.10;99.90;;;;;;5070679;28;20036;-77
2023/10/05 12:04:23;;;;;;;0.20;0.20;;;17.00;99.90;;;;;;5060528;28;20795;-78
2023/10/05 12:06:58;;;;;;;0.40;0.40;;;17.00;99.90;;;;;;5083708;28;20056;-78
2023/10/05 12:09:30;;;;;;;0.50;0.50;;;17.10;99.90;;;;;;5083134;28;20040;-77
2023/10/05 12:11:58;;;;;;;0.20;0.20;;;17.20;99.90;;;;;;5063701;28;20036;-77
2023/10/05 12:14:27;;;;;;;0.30;0.30;;;17.20;99.90;;;;;;5052612;28;20047;-77
2023/10/05 12:16:56;;;;;;;2.35;1.63;;;17.30;99.90;;;;;;5088701;28;20040;-77
2023/10/05 12:19:29;;;;;;;0.20;0.20;;;17.30;99.90;;;;;;5081209;28;20058;-77
2023/10/05 12:21:59;;;;;;;0.30;0.30;;;17.40;99.90;;;;;;5054313;28;20082;-77
2023/10/05 12:24:26;;;;;;;2.92;1.85;;;17.60;99.90;;;;;;5046193;28;20122;-77
2023/10/05 12:26:53;;;;;;;0.20;0.20;;;17.80;99.90;;;;;;5064336;28;20074;-76
2023/10/05 12:29:19;;;;;;;0.22;0.22;;;18.00;99.90;;;;;;5087167;28;20044;-77
2023/10/05 12:31:51;;;;;;;1.55;1.45;;;18.10;99.90;;;;;;5079701;28;20040;-77
2023/10/05 12:34:23;;;;;;;0.40;0.40;;;18.10;99.90;;;;;;5079138;28;20100;-76
2023/10/05 12:36:50;;;;;;;1.98;1.25;;;18.10;99.90;;;;;;5077794;28;20044;-78
2023/10/05 12:39:20;;;;;;;0.30;0.30;;;18.10;99.90;;;;;;5052633;28;20043;-75
2023/10/05 12:41:48;;;;;;;0.30;0.30;;;18.10;99.90;;;;;;5080416;28;20043;-76
2023/10/05 12:44:17;;;;;;;0.60;0.60;;;17.90;99.90;;;;;;5069023;28;20560;-76
2023/10/05 12:46:45;;;;;;;0.30;0.30;;;17.80;99.90;;;;;;5068003;28;20094;-76
2023/10/05 12:49:17;;;;;;;0.30;0.30;;;17.70;99.90;;;;;;5064945;28;20036;-78
2023/10/05 12:51:45;;;;;;;0.98;0.50;;;17.40;99.90;;;;;;5065330;28;20436;-79
2023/10/05 12:54:28;;;;;;;1.02;1.00;;;17.10;99.90;;;;;;5041585;28;20076;-79
2023/10/05 12:56:55;;;;;;;0.20;0.20;;;16.70;99.90;;;;;;5087057;28;20043;-78
2023/10/05 12:59:21;;;;;;;0.38;0.38;;;16.30;99.90;;;;;;5088540;28;20035;-78
2023/10/05 13:01:47;;;;;;;0.40;0.40;;;16.10;99.90;;;;;;5101836;28;20485;-78
2023/10/05 13:04:16;;;;;;;0.20;0.20;;;15.90;99.90;;;;;;5083072;28;20447;-78
2023/10/05 13:06:44;;;;;;;0.32;0.32;;;15.80;99.90;;;;;;5064436;28;20126;-77
2023/10/05 13:09:13;;;;;;;0.52;0.52;;;15.90;99.90;;;;;;5084588;28;20081;-77
2023/10/05 13:11:45;;;;;;;1.25;1.20;;;15.90;99.90;;;;;;5056585;28;20043;-77
2023/10/05 13:14:14;;;;;;;0.40;0.40;;;16.10;99.90;;;;;;5083740;28;20054;-77
2023/10/05 13:16:51;;;;;;;0.30;0.30;;;16.30;99.90;;;;;;5051232;28;20597;-78
2023/10/05 13:19:18;;;;;;;0.30;0.30;;;16.50;99.90;;;;;;5062130;28;20046;-77
2023/10/05 13:21:44;;;;;;;0.73;0.73;;;16.80;99.90;;;;;;5066655;28;20085;-78
2023/10/05 13:24:15;;;;;;;0.40;0.40;;;17.00;99.90;;;;;;5082102;28;20085;-78
2023/10/05 13:26:44;;;;;;;0.30;0.30;;;17.10;99.90;;;;;;5062675;28;20131;-77
2023/10/05 13:29:32;;;;;;;0.20;0.20;;;17.30;99.90;;;;;;5083653;28;20054;-76
2023/10/05 13:31:58;;;;;;;0.30;0.30;;;17.50;99.90;;;;;;5083181;28;20653;-77
2023/10/05 13:34:27;;;;;;;0.30;0.30;;;17.60;99.90;;;;;;5077161;28;20040;-77